sensor_id;sensor_type;location;lat;lon;timestamp;P1;durP1;ratioP1;P2;durP2;ratioP2
24407;SDS011;12542;50.924;4.516;2023-02-28T00:01:11;8.13;;;4.53;;
24407;SDS011;12542;50.924;4.516;2023-02-28T00:03:38;7.80;;;4.63;;
24407;SDS011;12542;50.924;4.516;2023-02-28T00:06:04;8.55;;;4.57;;
24407;SDS011;12542;50.924;4.516;2023-02-28T00:08:31;13.95;;;4.85;;
24407;SDS011;12542;50.924;4.516;2023-02-28T00:11:00;9.82;;;4.55;;
24407;SDS011;12542;50.924;4.516;2023-02-28T00:13:28;8.52;;;4.55;;
24407;SDS011;12542;50.924;4.516;2023-02-28T00:18:46;8.85;;;4.90;;
24407;SDS011;12542;50.924;4.516;2023-02-28T00:21:12;10.50;;;4.85;;
24407;SDS011;12542;50.924;4.516;2023-02-28T00:23:38;10.15;;;4.72;;
24407;SDS011;12542;50.924;4.516;2023-02-28T00:26:04;8.95;;;4.90;;
24407;SDS011;12542;50.924;4.516;2023-02-28T00:28:30;12.63;;;5.93;;
24407;SDS011;12542;50.924;4.516;2023-02-28T00:33:58;12.70;;;5.82;;
24407;SDS011;12542;50.924;4.516;2023-02-28T00:36:24;9.25;;;4.97;;
24407;SDS011;12542;50.924;4.516;2023-02-28T00:38:50;9.50;;;5.20;;
24407;SDS011;12542;50.924;4.516;2023-02-28T00:41:17;9.20;;;4.72;;
24407;SDS011;12542;50.924;4.516;2023-02-28T00:43:42;11.95;;;4.97;;
24407;SDS011;12542;50.924;4.516;2023-02-28T00:46:08;11.60;;;5.35;;
24407;SDS011;12542;50.924;4.516;2023-02-28T00:48:34;10.05;;;4.80;;
24407;SDS011;12542;50.924;4.516;2023-02-28T00:51:00;9.80;;;5.32;;
24407;SDS011;12542;50.924;4.516;2023-02-28T00:53:27;9.80;;;5.32;;
24407;SDS011;12542;50.924;4.516;2023-02-28T00:55:53;13.75;;;5.78;;
24407;SDS011;12542;50.924;4.516;2023-02-28T00:58:18;12.23;;;5.32;;
24407;SDS011;12542;50.924;4.516;2023-02-28T01:00:44;10.30;;;5.20;;
24407;SDS011;12542;50.924;4.516;2023-02-28T01:03:14;9.52;;;5.03;;
24407;SDS011;12542;50.924;4.516;2023-02-28T01:05:43;10.75;;;5.30;;
24407;SDS011;12542;50.924;4.516;2023-02-28T01:08:09;10.38;;;6.00;;
24407;SDS011;12542;50.924;4.516;2023-02-28T01:10:35;9.70;;;4.97;;
24407;SDS011;12542;50.924;4.516;2023-02-28T01:13:02;9.02;;;4.80;;
24407;SDS011;12542;50.924;4.516;2023-02-28T01:15:28;8.20;;;5.45;;
24407;SDS011;12542;50.924;4.516;2023-02-28T01:17:57;7.32;;;4.60;;
24407;SDS011;12542;50.924;4.516;2023-02-28T01:20:23;8.35;;;4.60;;
24407;SDS011;12542;50.924;4.516;2023-02-28T01:22:49;9.98;;;5.30;;
24407;SDS011;12542;50.924;4.516;2023-02-28T01:25:15;9.82;;;5.10;;
24407;SDS011;12542;50.924;4.516;2023-02-28T01:27:43;17.85;;;6.63;;
24407;SDS011;12542;50.924;4.516;2023-02-28T01:30:09;12.77;;;5.32;;
24407;SDS011;12542;50.924;4.516;2023-02-28T01:32:35;13.60;;;5.45;;
24407;SDS011;12542;50.924;4.516;2023-02-28T01:35:05;8.55;;;5.28;;
24407;SDS011;12542;50.924;4.516;2023-02-28T01:37:31;9.13;;;4.72;;
24407;SDS011;12542;50.924;4.516;2023-02-28T01:39:56;10.27;;;5.85;;
24407;SDS011;12542;50.924;4.516;2023-02-28T01:42:22;15.13;;;6.07;;
24407;SDS011;12542;50.924;4.516;2023-02-28T01:47:30;12.88;;;5.75;;
24407;SDS011;12542;50.924;4.516;2023-02-28T01:49:58;11.45;;;5.80;;
24407;SDS011;12542;50.924;4.516;2023-02-28T01:52:26;12.60;;;5.70;;
24407;SDS011;12542;50.924;4.516;2023-02-28T01:54:55;11.65;;;6.15;;
24407;SDS011;12542;50.924;4.516;2023-02-28T01:57:25;10.73;;;6.47;;
24407;SDS011;12542;50.924;4.516;2023-02-28T02:00:04;8.52;;;6.07;;
24407;SDS011;12542;50.924;4.516;2023-02-28T02:02:35;11.90;;;6.10;;
24407;SDS011;12542;50.924;4.516;2023-02-28T02:07:33;10.77;;;7.45;;
24407;SDS011;12542;50.924;4.516;2023-02-28T02:10:04;17.23;;;6.50;;
24407;SDS011;12542;50.924;4.516;2023-02-28T02:16:04;10.15;;;6.15;;
24407;SDS011;12542;50.924;4.516;2023-02-28T02:18:53;9.90;;;6.22;;
24407;SDS011;12542;50.924;4.516;2023-02-28T02:27:16;11.60;;;6.57;;
24407;SDS011;12542;50.924;4.516;2023-02-28T02:30:16;12.88;;;6.70;;
24407;SDS011;12542;50.924;4.516;2023-02-28T02:35:27;11.90;;;6.35;;
24407;SDS011;12542;50.924;4.516;2023-02-28T02:41:14;9.13;;;6.32;;
24407;SDS011;12542;50.924;4.516;2023-02-28T02:43:49;12.35;;;6.75;;
24407;SDS011;12542;50.924;4.516;2023-02-28T02:46:24;13.10;;;6.82;;
24407;SDS011;12542;50.924;4.516;2023-02-28T02:48:55;12.27;;;6.63;;
24407;SDS011;12542;50.924;4.516;2023-02-28T02:51:24;12.50;;;6.45;;
24407;SDS011;12542;50.924;4.516;2023-02-28T02:53:57;11.65;;;6.35;;
24407;SDS011;12542;50.924;4.516;2023-02-28T02:56:28;12.85;;;6.65;;
24407;SDS011;12542;50.924;4.516;2023-02-28T02:59:02;10.32;;;6.05;;
24407;SDS011;12542;50.924;4.516;2023-02-28T03:01:34;15.27;;;6.55;;
24407;SDS011;12542;50.924;4.516;2023-02-28T03:04:04;13.55;;;6.93;;
24407;SDS011;12542;50.924;4.516;2023-02-28T03:06:41;11.60;;;6.35;;
24407;SDS011;12542;50.924;4.516;2023-02-28T03:09:09;14.20;;;6.75;;
24407;SDS011;12542;50.924;4.516;2023-02-28T03:11:36;10.90;;;6.45;;
24407;SDS011;12542;50.924;4.516;2023-02-28T03:22:33;12.75;;;7.15;;
24407;SDS011;12542;50.924;4.516;2023-02-28T03:30:35;12.38;;;7.00;;
24407;SDS011;12542;50.924;4.516;2023-02-28T03:33:30;11.45;;;6.40;;
24407;SDS011;12542;50.924;4.516;2023-02-28T03:36:25;8.83;;;4.53;;
24407;SDS011;12542;50.924;4.516;2023-02-28T03:42:11;11.52;;;6.80;;
24407;SDS011;12542;50.924;4.516;2023-02-28T03:44:44;11.30;;;6.90;;
24407;SDS011;12542;50.924;4.516;2023-02-28T03:47:29;9.82;;;6.68;;
24407;SDS011;12542;50.924;4.516;2023-02-28T03:50:16;14.07;;;6.60;;
24407;SDS011;12542;50.924;4.516;2023-02-28T03:52:54;14.48;;;7.10;;
24407;SDS011;12542;50.924;4.516;2023-02-28T03:55:28;14.38;;;7.43;;
24407;SDS011;12542;50.924;4.516;2023-02-28T04:06:16;10.45;;;6.35;;
24407;SDS011;12542;50.924;4.516;2023-02-28T04:08:46;13.65;;;7.35;;
24407;SDS011;12542;50.924;4.516;2023-02-28T04:11:16;18.27;;;7.95;;
24407;SDS011;12542;50.924;4.516;2023-02-28T04:13:52;16.50;;;7.15;;
24407;SDS011;12542;50.924;4.516;2023-02-28T04:16:18;13.98;;;6.90;;
24407;SDS011;12542;50.924;4.516;2023-02-28T04:18:44;11.18;;;6.55;;
24407;SDS011;12542;50.924;4.516;2023-02-28T04:21:10;10.57;;;6.57;;
24407;SDS011;12542;50.924;4.516;2023-02-28T04:23:37;12.98;;;7.53;;
24407;SDS011;12542;50.924;4.516;2023-02-28T04:26:05;14.48;;;7.20;;
24407;SDS011;12542;50.924;4.516;2023-02-28T04:28:32;17.70;;;8.13;;
24407;SDS011;12542;50.924;4.516;2023-02-28T04:30:59;14.63;;;7.20;;
24407;SDS011;12542;50.924;4.516;2023-02-28T04:33:30;14.32;;;7.82;;
24407;SDS011;12542;50.924;4.516;2023-02-28T04:36:04;16.00;;;7.03;;
24407;SDS011;12542;50.924;4.516;2023-02-28T04:38:33;15.55;;;7.82;;
24407;SDS011;12542;50.924;4.516;2023-02-28T04:41:01;17.15;;;7.50;;
24407;SDS011;12542;50.924;4.516;2023-02-28T04:43:27;14.40;;;7.70;;
24407;SDS011;12542;50.924;4.516;2023-02-28T04:45:54;12.88;;;7.40;;
24407;SDS011;12542;50.924;4.516;2023-02-28T04:48:24;18.55;;;7.47;;
24407;SDS011;12542;50.924;4.516;2023-02-28T04:50:52;13.32;;;7.55;;
24407;SDS011;12542;50.924;4.516;2023-02-28T04:53:18;13.00;;;7.60;;
24407;SDS011;12542;50.924;4.516;2023-02-28T04:55:44;15.25;;;7.72;;
24407;SDS011;12542;50.924;4.516;2023-02-28T04:58:10;22.95;;;11.10;;
24407;SDS011;12542;50.924;4.516;2023-02-28T05:00:36;13.48;;;7.78;;
24407;SDS011;12542;50.924;4.516;2023-02-28T05:03:02;12.35;;;7.72;;
24407;SDS011;12542;50.924;4.516;2023-02-28T05:05:28;12.98;;;7.35;;
24407;SDS011;12542;50.924;4.516;2023-02-28T05:07:54;14.15;;;8.52;;
24407;SDS011;12542;50.924;4.516;2023-02-28T05:10:20;15.25;;;7.78;;
24407;SDS011;12542;50.924;4.516;2023-02-28T05:12:47;12.07;;;8.20;;
24407;SDS011;12542;50.924;4.516;2023-02-28T05:15:17;10.18;;;7.65;;
24407;SDS011;12542;50.924;4.516;2023-02-28T05:17:43;13.00;;;8.02;;
24407;SDS011;12542;50.924;4.516;2023-02-28T05:20:09;17.30;;;7.85;;
24407;SDS011;12542;50.924;4.516;2023-02-28T05:22:42;11.93;;;7.88;;
24407;SDS011;12542;50.924;4.516;2023-02-28T05:25:10;15.65;;;8.45;;
24407;SDS011;12542;50.924;4.516;2023-02-28T05:27:40;11.82;;;7.47;;
24407;SDS011;12542;50.924;4.516;2023-02-28T05:30:06;11.35;;;8.65;;
24407;SDS011;12542;50.924;4.516;2023-02-28T05:32:36;17.48;;;8.65;;
24407;SDS011;12542;50.924;4.516;2023-02-28T05:35:10;15.52;;;8.68;;
24407;SDS011;12542;50.924;4.516;2023-02-28T05:37:37;19.13;;;8.38;;
24407;SDS011;12542;50.924;4.516;2023-02-28T05:40:06;14.02;;;7.75;;
24407;SDS011;12542;50.924;4.516;2023-02-28T05:42:35;12.18;;;8.27;;
24407;SDS011;12542;50.924;4.516;2023-02-28T05:45:02;14.40;;;8.27;;
24407;SDS011;12542;50.924;4.516;2023-02-28T05:47:32;16.05;;;8.85;;
24407;SDS011;12542;50.924;4.516;2023-02-28T05:49:57;14.57;;;7.95;;
24407;SDS011;12542;50.924;4.516;2023-02-28T05:52:23;14.18;;;8.38;;
24407;SDS011;12542;50.924;4.516;2023-02-28T05:54:49;11.85;;;8.10;;
24407;SDS011;12542;50.924;4.516;2023-02-28T05:57:14;12.93;;;7.85;;
24407;SDS011;12542;50.924;4.516;2023-02-28T05:59:40;14.07;;;7.88;;
24407;SDS011;12542;50.924;4.516;2023-02-28T06:02:09;11.70;;;8.75;;
24407;SDS011;12542;50.924;4.516;2023-02-28T06:04:37;15.48;;;8.07;;
24407;SDS011;12542;50.924;4.516;2023-02-28T06:07:03;16.02;;;7.75;;
24407;SDS011;12542;50.924;4.516;2023-02-28T06:09:29;14.32;;;8.27;;
24407;SDS011;12542;50.924;4.516;2023-02-28T06:11:57;17.67;;;7.38;;
24407;SDS011;12542;50.924;4.516;2023-02-28T06:14:24;13.45;;;8.32;;
24407;SDS011;12542;50.924;4.516;2023-02-28T06:16:50;13.45;;;7.22;;
24407;SDS011;12542;50.924;4.516;2023-02-28T06:19:15;14.63;;;7.70;;
24407;SDS011;12542;50.924;4.516;2023-02-28T06:21:42;11.60;;;7.13;;
24407;SDS011;12542;50.924;4.516;2023-02-28T06:24:13;12.95;;;7.68;;
24407;SDS011;12542;50.924;4.516;2023-02-28T06:26:44;13.50;;;8.10;;
24407;SDS011;12542;50.924;4.516;2023-02-28T06:29:09;12.40;;;8.05;;
24407;SDS011;12542;50.924;4.516;2023-02-28T06:31:35;13.25;;;7.78;;
24407;SDS011;12542;50.924;4.516;2023-02-28T06:34:01;13.05;;;7.20;;
24407;SDS011;12542;50.924;4.516;2023-02-28T06:36:27;11.60;;;7.72;;
24407;SDS011;12542;50.924;4.516;2023-02-28T06:38:53;15.77;;;8.15;;
24407;SDS011;12542;50.924;4.516;2023-02-28T06:41:21;14.20;;;7.88;;
24407;SDS011;12542;50.924;4.516;2023-02-28T06:43:49;10.48;;;7.45;;
24407;SDS011;12542;50.924;4.516;2023-02-28T06:46:14;14.43;;;7.65;;
24407;SDS011;12542;50.924;4.516;2023-02-28T06:48:42;14.38;;;7.88;;
24407;SDS011;12542;50.924;4.516;2023-02-28T06:51:11;13.43;;;7.63;;
24407;SDS011;12542;50.924;4.516;2023-02-28T06:53:41;13.52;;;7.20;;
24407;SDS011;12542;50.924;4.516;2023-02-28T06:56:07;14.30;;;8.07;;
24407;SDS011;12542;50.924;4.516;2023-02-28T06:58:38;16.05;;;7.93;;
24407;SDS011;12542;50.924;4.516;2023-02-28T07:01:05;13.18;;;7.90;;
24407;SDS011;12542;50.924;4.516;2023-02-28T07:03:32;12.95;;;7.07;;
24407;SDS011;12542;50.924;4.516;2023-02-28T07:05:59;13.40;;;6.97;;
24407;SDS011;12542;50.924;4.516;2023-02-28T07:08:26;11.55;;;6.93;;
24407;SDS011;12542;50.924;4.516;2023-02-28T07:10:55;10.68;;;7.18;;
24407;SDS011;12542;50.924;4.516;2023-02-28T07:13:21;14.00;;;8.40;;
24407;SDS011;12542;50.924;4.516;2023-02-28T07:15:56;12.50;;;7.50;;
24407;SDS011;12542;50.924;4.516;2023-02-28T07:20:50;12.75;;;6.82;;
24407;SDS011;12542;50.924;4.516;2023-02-28T07:23:16;11.05;;;7.13;;
24407;SDS011;12542;50.924;4.516;2023-02-28T07:25:43;10.52;;;6.38;;
24407;SDS011;12542;50.924;4.516;2023-02-28T07:28:11;10.80;;;6.45;;
24407;SDS011;12542;50.924;4.516;2023-02-28T07:30:38;8.73;;;6.35;;
24407;SDS011;12542;50.924;4.516;2023-02-28T07:33:06;10.32;;;6.22;;
24407;SDS011;12542;50.924;4.516;2023-02-28T07:35:32;8.93;;;5.47;;
24407;SDS011;12542;50.924;4.516;2023-02-28T07:37:58;12.15;;;6.05;;
24407;SDS011;12542;50.924;4.516;2023-02-28T07:40:27;12.90;;;5.75;;
24407;SDS011;12542;50.924;4.516;2023-02-28T07:42:55;10.77;;;5.80;;
24407;SDS011;12542;50.924;4.516;2023-02-28T07:45:21;9.32;;;5.07;;
24407;SDS011;12542;50.924;4.516;2023-02-28T07:47:47;9.43;;;5.40;;
24407;SDS011;12542;50.924;4.516;2023-02-28T07:50:14;8.52;;;4.70;;
24407;SDS011;12542;50.924;4.516;2023-02-28T07:52:40;10.02;;;5.72;;
24407;SDS011;12542;50.924;4.516;2023-02-28T07:55:12;8.90;;;4.97;;
24407;SDS011;12542;50.924;4.516;2023-02-28T07:57:39;6.43;;;4.57;;
24407;SDS011;12542;50.924;4.516;2023-02-28T08:00:05;10.98;;;5.22;;
24407;SDS011;12542;50.924;4.516;2023-02-28T08:02:34;7.93;;;5.22;;
24407;SDS011;12542;50.924;4.516;2023-02-28T08:05:01;10.23;;;5.10;;
24407;SDS011;12542;50.924;4.516;2023-02-28T08:07:33;11.25;;;4.35;;
24407;SDS011;12542;50.924;4.516;2023-02-28T08:10:10;7.22;;;4.55;;
24407;SDS011;12542;50.924;4.516;2023-02-28T08:12:37;7.38;;;4.43;;
24407;SDS011;12542;50.924;4.516;2023-02-28T08:15:20;6.85;;;4.35;;
24407;SDS011;12542;50.924;4.516;2023-02-28T08:17:46;7.57;;;4.30;;
24407;SDS011;12542;50.924;4.516;2023-02-28T08:20:11;7.20;;;4.15;;
24407;SDS011;12542;50.924;4.516;2023-02-28T08:22:37;9.55;;;4.03;;
24407;SDS011;12542;50.924;4.516;2023-02-28T08:25:03;10.18;;;3.47;;
24407;SDS011;12542;50.924;4.516;2023-02-28T08:27:29;8.60;;;3.38;;
24407;SDS011;12542;50.924;4.516;2023-02-28T08:29:54;7.93;;;3.17;;
24407;SDS011;12542;50.924;4.516;2023-02-28T08:32:23;8.85;;;3.50;;
24407;SDS011;12542;50.924;4.516;2023-02-28T08:34:48;5.43;;;3.25;;
24407;SDS011;12542;50.924;4.516;2023-02-28T08:37:14;5.97;;;3.38;;
24407;SDS011;12542;50.924;4.516;2023-02-28T08:39:40;7.18;;;3.47;;
24407;SDS011;12542;50.924;4.516;2023-02-28T08:42:06;5.72;;;3.00;;
24407;SDS011;12542;50.924;4.516;2023-02-28T08:44:31;5.32;;;3.28;;
24407;SDS011;12542;50.924;4.516;2023-02-28T08:46:57;6.15;;;3.60;;
24407;SDS011;12542;50.924;4.516;2023-02-28T08:49:23;6.03;;;3.08;;
24407;SDS011;12542;50.924;4.516;2023-02-28T08:51:48;5.28;;;3.45;;
24407;SDS011;12542;50.924;4.516;2023-02-28T08:54:14;6.32;;;3.53;;
24407;SDS011;12542;50.924;4.516;2023-02-28T08:56:44;4.82;;;3.20;;
24407;SDS011;12542;50.924;4.516;2023-02-28T08:59:12;5.15;;;3.25;;
24407;SDS011;12542;50.924;4.516;2023-02-28T09:01:38;7.45;;;3.65;;
24407;SDS011;12542;50.924;4.516;2023-02-28T09:04:06;5.85;;;3.40;;
24407;SDS011;12542;50.924;4.516;2023-02-28T09:06:33;7.18;;;3.47;;
24407;SDS011;12542;50.924;4.516;2023-02-28T09:08:59;6.03;;;3.42;;
24407;SDS011;12542;50.924;4.516;2023-02-28T09:11:27;7.43;;;4.07;;
24407;SDS011;12542;50.924;4.516;2023-02-28T09:13:53;7.55;;;3.35;;
24407;SDS011;12542;50.924;4.516;2023-02-28T09:16:20;7.32;;;2.88;;
24407;SDS011;12542;50.924;4.516;2023-02-28T09:18:46;4.28;;;3.15;;
24407;SDS011;12542;50.924;4.516;2023-02-28T09:21:16;8.30;;;3.22;;
24407;SDS011;12542;50.924;4.516;2023-02-28T09:23:44;6.55;;;3.42;;
24407;SDS011;12542;50.924;4.516;2023-02-28T09:26:17;4.70;;;2.97;;
24407;SDS011;12542;50.924;4.516;2023-02-28T09:28:45;5.38;;;2.58;;
24407;SDS011;12542;50.924;4.516;2023-02-28T09:31:15;4.28;;;2.63;;
24407;SDS011;12542;50.924;4.516;2023-02-28T09:33:45;3.30;;;2.30;;
24407;SDS011;12542;50.924;4.516;2023-02-28T09:36:11;4.53;;;2.75;;
24407;SDS011;12542;50.924;4.516;2023-02-28T09:38:37;4.50;;;3.25;;
24407;SDS011;12542;50.924;4.516;2023-02-28T09:41:04;5.53;;;2.28;;
24407;SDS011;12542;50.924;4.516;2023-02-28T09:43:38;3.88;;;2.70;;
24407;SDS011;12542;50.924;4.516;2023-02-28T09:46:12;6.20;;;2.72;;
24407;SDS011;12542;50.924;4.516;2023-02-28T09:48:50;4.63;;;2.60;;
24407;SDS011;12542;50.924;4.516;2023-02-28T09:51:37;4.82;;;2.80;;
24407;SDS011;12542;50.924;4.516;2023-02-28T09:54:24;4.32;;;2.83;;
24407;SDS011;12542;50.924;4.516;2023-02-28T10:08:25;4.13;;;2.20;;
24407;SDS011;12542;50.924;4.516;2023-02-28T10:10:57;5.93;;;2.70;;
24407;SDS011;12542;50.924;4.516;2023-02-28T10:16:39;2.47;;;1.83;;
24407;SDS011;12542;50.924;4.516;2023-02-28T10:21:47;6.15;;;1.90;;
24407;SDS011;12542;50.924;4.516;2023-02-28T10:27:14;3.92;;;2.10;;
24407;SDS011;12542;50.924;4.516;2023-02-28T10:29:41;2.53;;;1.52;;
24407;SDS011;12542;50.924;4.516;2023-02-28T10:32:18;4.43;;;1.70;;
24407;SDS011;12542;50.924;4.516;2023-02-28T10:34:57;4.15;;;1.77;;
24407;SDS011;12542;50.924;4.516;2023-02-28T10:37:33;3.33;;;1.60;;
24407;SDS011;12542;50.924;4.516;2023-02-28T10:40:03;2.20;;;1.35;;
24407;SDS011;12542;50.924;4.516;2023-02-28T10:42:31;2.38;;;1.65;;
24407;SDS011;12542;50.924;4.516;2023-02-28T10:47:41;4.47;;;1.48;;
24407;SDS011;12542;50.924;4.516;2023-02-28T10:50:27;2.40;;;1.40;;
24407;SDS011;12542;50.924;4.516;2023-02-28T10:53:10;5.05;;;1.33;;
24407;SDS011;12542;50.924;4.516;2023-02-28T10:55:39;3.10;;;1.80;;
24407;SDS011;12542;50.924;4.516;2023-02-28T10:58:27;2.05;;;1.45;;
24407;SDS011;12542;50.924;4.516;2023-02-28T11:00:54;2.53;;;1.67;;
24407;SDS011;12542;50.924;4.516;2023-02-28T11:03:34;3.10;;;1.70;;
24407;SDS011;12542;50.924;4.516;2023-02-28T11:06:05;2.53;;;1.45;;
24407;SDS011;12542;50.924;4.516;2023-02-28T11:08:44;4.97;;;2.03;;
24407;SDS011;12542;50.924;4.516;2023-02-28T11:11:41;3.42;;;1.80;;
24407;SDS011;12542;50.924;4.516;2023-02-28T11:14:22;8.85;;;2.47;;
24407;SDS011;12542;50.924;4.516;2023-02-28T11:16:51;3.95;;;2.22;;
24407;SDS011;12542;50.924;4.516;2023-02-28T11:19:25;2.92;;;2.08;;
24407;SDS011;12542;50.924;4.516;2023-02-28T11:22:02;3.95;;;1.60;;
24407;SDS011;12542;50.924;4.516;2023-02-28T11:24:32;3.38;;;1.85;;
24407;SDS011;12542;50.924;4.516;2023-02-28T11:27:01;4.57;;;1.80;;
24407;SDS011;12542;50.924;4.516;2023-02-28T11:29:28;2.47;;;1.52;;
24407;SDS011;12542;50.924;4.516;2023-02-28T11:34:34;2.20;;;1.23;;
24407;SDS011;12542;50.924;4.516;2023-02-28T11:37:00;7.65;;;2.05;;
24407;SDS011;12542;50.924;4.516;2023-02-28T11:39:30;4.47;;;1.95;;
24407;SDS011;12542;50.924;4.516;2023-02-28T11:45:02;5.03;;;1.80;;
24407;SDS011;12542;50.924;4.516;2023-02-28T11:50:15;5.65;;;2.40;;
24407;SDS011;12542;50.924;4.516;2023-02-28T11:52:55;3.63;;;2.00;;
24407;SDS011;12542;50.924;4.516;2023-02-28T11:55:27;4.05;;;2.45;;
24407;SDS011;12542;50.924;4.516;2023-02-28T11:58:30;3.08;;;2.03;;
24407;SDS011;12542;50.924;4.516;2023-02-28T12:17:39;6.55;;;2.20;;
24407;SDS011;12542;50.924;4.516;2023-02-28T12:25:50;3.65;;;2.25;;
24407;SDS011;12542;50.924;4.516;2023-02-28T12:28:19;4.72;;;1.85;;
24407;SDS011;12542;50.924;4.516;2023-02-28T12:31:00;3.28;;;2.10;;
24407;SDS011;12542;50.924;4.516;2023-02-28T12:33:38;2.17;;;1.48;;
24407;SDS011;12542;50.924;4.516;2023-02-28T12:36:10;4.60;;;2.10;;
24407;SDS011;12542;50.924;4.516;2023-02-28T12:38:45;2.73;;;1.57;;
24407;SDS011;12542;50.924;4.516;2023-02-28T12:41:16;3.63;;;1.90;;
24407;SDS011;12542;50.924;4.516;2023-02-28T12:43:48;1.90;;;1.58;;
24407;SDS011;12542;50.924;4.516;2023-02-28T12:46:22;5.57;;;2.20;;
24407;SDS011;12542;50.924;4.516;2023-02-28T12:49:15;3.13;;;2.15;;
24407;SDS011;12542;50.924;4.516;2023-02-28T12:51:46;2.15;;;1.70;;
24407;SDS011;12542;50.924;4.516;2023-02-28T12:54:18;2.80;;;1.92;;
24407;SDS011;12542;50.924;4.516;2023-02-28T12:56:57;3.47;;;2.00;;
24407;SDS011;12542;50.924;4.516;2023-02-28T13:07:58;6.72;;;2.22;;
24407;SDS011;12542;50.924;4.516;2023-02-28T13:10:42;3.13;;;1.83;;
24407;SDS011;12542;50.924;4.516;2023-02-28T13:13:13;2.63;;;1.75;;
24407;SDS011;12542;50.924;4.516;2023-02-28T13:15:41;4.72;;;1.73;;
24407;SDS011;12542;50.924;4.516;2023-02-28T13:21:08;4.05;;;2.05;;
24407;SDS011;12542;50.924;4.516;2023-02-28T13:34:32;3.88;;;2.42;;
24407;SDS011;12542;50.924;4.516;2023-02-28T13:42:48;3.80;;;2.03;;
24407;SDS011;12542;50.924;4.516;2023-02-28T13:45:25;2.83;;;2.00;;
24407;SDS011;12542;50.924;4.516;2023-02-28T13:52:55;6.63;;;2.42;;
24407;SDS011;12542;50.924;4.516;2023-02-28T14:06:33;4.80;;;2.28;;
24407;SDS011;12542;50.924;4.516;2023-02-28T14:14:54;4.90;;;2.20;;
24407;SDS011;12542;50.924;4.516;2023-02-28T14:17:22;4.30;;;2.15;;
24407;SDS011;12542;50.924;4.516;2023-02-28T14:19:47;3.63;;;2.40;;
24407;SDS011;12542;50.924;4.516;2023-02-28T14:36:30;4.63;;;2.60;;
24407;SDS011;12542;50.924;4.516;2023-02-28T14:38:58;6.82;;;2.67;;
24407;SDS011;12542;50.924;4.516;2023-02-28T14:41:33;6.00;;;2.42;;
24407;SDS011;12542;50.924;4.516;2023-02-28T14:44:12;3.35;;;2.30;;
24407;SDS011;12542;50.924;4.516;2023-02-28T14:46:40;4.05;;;2.10;;
24407;SDS011;12542;50.924;4.516;2023-02-28T14:49:21;4.60;;;2.50;;
24407;SDS011;12542;50.924;4.516;2023-02-28T14:51:48;3.53;;;2.58;;
24407;SDS011;12542;50.924;4.516;2023-02-28T14:54:19;6.20;;;2.65;;
24407;SDS011;12542;50.924;4.516;2023-02-28T14:56:49;7.43;;;2.47;;
24407;SDS011;12542;50.924;4.516;2023-02-28T14:59:32;3.35;;;2.40;;
24407;SDS011;12542;50.924;4.516;2023-02-28T15:04:56;4.07;;;2.67;;
24407;SDS011;12542;50.924;4.516;2023-02-28T15:07:26;3.40;;;2.22;;
24407;SDS011;12542;50.924;4.516;2023-02-28T15:12:35;6.40;;;3.08;;
24407;SDS011;12542;50.924;4.516;2023-02-28T15:15:02;6.00;;;2.90;;
24407;SDS011;12542;50.924;4.516;2023-02-28T15:17:28;3.97;;;2.53;;
24407;SDS011;12542;50.924;4.516;2023-02-28T15:19:55;5.15;;;2.80;;
24407;SDS011;12542;50.924;4.516;2023-02-28T15:22:31;4.57;;;2.92;;
24407;SDS011;12542;50.924;4.516;2023-02-28T15:25:02;4.30;;;2.40;;
24407;SDS011;12542;50.924;4.516;2023-02-28T15:27:31;3.70;;;2.42;;
24407;SDS011;12542;50.924;4.516;2023-02-28T15:30:05;5.68;;;2.65;;
24407;SDS011;12542;50.924;4.516;2023-02-28T15:32:37;4.57;;;2.50;;
24407;SDS011;12542;50.924;4.516;2023-02-28T15:40:52;6.10;;;3.13;;
24407;SDS011;12542;50.924;4.516;2023-02-28T15:43:24;6.32;;;3.10;;
24407;SDS011;12542;50.924;4.516;2023-02-28T15:45:55;6.55;;;3.00;;
24407;SDS011;12542;50.924;4.516;2023-02-28T15:48:22;5.85;;;2.70;;
24407;SDS011;12542;50.924;4.516;2023-02-28T15:51:36;3.38;;;2.28;;
24407;SDS011;12542;50.924;4.516;2023-02-28T15:56:23;7.50;;;3.03;;
24407;SDS011;12542;50.924;4.516;2023-02-28T15:58:59;5.05;;;2.90;;
24407;SDS011;12542;50.924;4.516;2023-02-28T16:01:28;4.65;;;2.42;;
24407;SDS011;12542;50.924;4.516;2023-02-28T16:03:59;4.18;;;2.92;;
24407;SDS011;12542;50.924;4.516;2023-02-28T16:06:33;4.47;;;2.67;;
24407;SDS011;12542;50.924;4.516;2023-02-28T16:09:03;3.90;;;2.72;;
24407;SDS011;12542;50.924;4.516;2023-02-28T16:11:33;4.65;;;3.15;;
24407;SDS011;12542;50.924;4.516;2023-02-28T16:14:02;4.38;;;3.03;;
24407;SDS011;12542;50.924;4.516;2023-02-28T16:16:28;6.15;;;3.00;;
24407;SDS011;12542;50.924;4.516;2023-02-28T16:18:53;9.00;;;2.92;;
24407;SDS011;12542;50.924;4.516;2023-02-28T16:21:20;3.17;;;2.70;;
24407;SDS011;12542;50.924;4.516;2023-02-28T16:23:45;5.88;;;2.75;;
24407;SDS011;12542;50.924;4.516;2023-02-28T16:26:18;5.82;;;2.55;;
24407;SDS011;12542;50.924;4.516;2023-02-28T16:28:47;7.10;;;2.92;;
24407;SDS011;12542;50.924;4.516;2023-02-28T16:31:14;5.60;;;2.97;;
24407;SDS011;12542;50.924;4.516;2023-02-28T16:33:41;4.88;;;2.75;;
24407;SDS011;12542;50.924;4.516;2023-02-28T16:36:16;4.00;;;2.78;;
24407;SDS011;12542;50.924;4.516;2023-02-28T16:41:11;4.55;;;3.05;;
24407;SDS011;12542;50.924;4.516;2023-02-28T16:43:45;5.10;;;3.22;;
24407;SDS011;12542;50.924;4.516;2023-02-28T16:46:12;4.32;;;2.83;;
24407;SDS011;12542;50.924;4.516;2023-02-28T16:48:39;7.63;;;2.85;;
24407;SDS011;12542;50.924;4.516;2023-02-28T16:51:06;5.68;;;3.30;;
24407;SDS011;12542;50.924;4.516;2023-02-28T16:53:41;6.60;;;3.75;;
24407;SDS011;12542;50.924;4.516;2023-02-28T16:56:43;5.47;;;3.05;;
24407;SDS011;12542;50.924;4.516;2023-02-28T16:59:00;6.38;;;3.25;;
24407;SDS011;12542;50.924;4.516;2023-02-28T17:01:27;6.25;;;3.50;;
24407;SDS011;12542;50.924;4.516;2023-02-28T17:03:54;6.28;;;3.30;;
24407;SDS011;12542;50.924;4.516;2023-02-28T17:06:20;5.93;;;3.30;;
24407;SDS011;12542;50.924;4.516;2023-02-28T17:08:48;7.78;;;3.28;;
24407;SDS011;12542;50.924;4.516;2023-02-28T17:11:15;6.65;;;3.72;;
24407;SDS011;12542;50.924;4.516;2023-02-28T17:13:41;5.85;;;3.20;;
24407;SDS011;12542;50.924;4.516;2023-02-28T17:16:16;7.25;;;3.53;;
24407;SDS011;12542;50.924;4.516;2023-02-28T17:18:58;7.40;;;3.50;;
24407;SDS011;12542;50.924;4.516;2023-02-28T17:21:25;6.25;;;3.92;;
24407;SDS011;12542;50.924;4.516;2023-02-28T17:23:51;7.80;;;3.53;;
24407;SDS011;12542;50.924;4.516;2023-02-28T17:26:17;7.68;;;3.53;;
24407;SDS011;12542;50.924;4.516;2023-02-28T17:28:50;7.25;;;3.50;;
24407;SDS011;12542;50.924;4.516;2023-02-28T17:31:17;7.80;;;3.75;;
24407;SDS011;12542;50.924;4.516;2023-02-28T17:33:43;6.88;;;4.43;;
24407;SDS011;12542;50.924;4.516;2023-02-28T17:36:16;9.60;;;5.53;;
24407;SDS011;12542;50.924;4.516;2023-02-28T17:38:47;17.05;;;6.45;;
24407;SDS011;12542;50.924;4.516;2023-02-28T17:41:13;11.82;;;5.10;;
24407;SDS011;12542;50.924;4.516;2023-02-28T17:43:39;12.10;;;4.40;;
24407;SDS011;12542;50.924;4.516;2023-02-28T17:46:16;7.13;;;3.60;;
24407;SDS011;12542;50.924;4.516;2023-02-28T17:48:45;6.47;;;4.20;;
24407;SDS011;12542;50.924;4.516;2023-02-28T17:51:12;7.22;;;4.38;;
24407;SDS011;12542;50.924;4.516;2023-02-28T17:53:39;15.23;;;4.70;;
24407;SDS011;12542;50.924;4.516;2023-02-28T17:56:05;15.73;;;7.07;;
24407;SDS011;12542;50.924;4.516;2023-02-28T17:58:39;7.73;;;4.00;;
24407;SDS011;12542;50.924;4.516;2023-02-28T18:01:04;22.38;;;10.43;;
24407;SDS011;12542;50.924;4.516;2023-02-28T18:03:30;14.45;;;7.60;;
24407;SDS011;12542;50.924;4.516;2023-02-28T18:05:57;8.40;;;5.63;;
24407;SDS011;12542;50.924;4.516;2023-02-28T18:08:23;13.80;;;8.07;;